Time;durP1;ratioP1;P1;durP2;ratioP2;P2;SDS_P1;SDS_P2;PMS_P1;PMS_P2;Temp;Humidity;BMP_temperature;BMP_pressure;BME280_temperature;BME280_humidity;BME280_pressure;Samples;Min_cycle;Max_cycle;Signal;HPM_P1;HPM_P2
2022/10/03 00:02:40;;;;;;;53.88;35.30;;;;;;;29.10;75.10;100772.97;5018478;28;71040;-43
2022/10/03 00:05:49;;;;;;;52.10;31.35;;;;;;;29.15;76.34;100775.03;5020953;28;65807;-43
2022/10/03 00:08:36;;;;;;;49.55;27.13;;;;;;;28.75;76.65;100699.47;5014354;28;70514;-44
2022/10/03 00:11:34;;;;;;;44.88;22.88;;;;;;;28.88;76.81;100726.44;5019991;28;67011;-43
2022/10/03 00:14:10;;;;;;;40.85;21.05;;;;;;;29.35;76.77;100786.63;5013278;28;70446;-44
2022/10/03 00:17:12;;;;;;;33.20;19.33;;;;;;;29.35;77.48;100780.38;5012822;28;66517;-42
2022/10/03 00:20:24;;;;;;;35.40;17.20;;;;;;;29.31;77.80;100789.94;5012908;28;69851;-42
2022/10/03 00:23:34;;;;;;;32.17;15.32;;;;;;;29.35;78.40;100792.03;5014505;28;65123;-41
2022/10/03 00:26:26;;;;;;;31.08;14.02;;;;;;;28.96;78.10;100707.31;5012472;28;70882;-41
2022/10/03 00:29:20;;;;;;;31.73;12.30;;;;;;;29.31;74.61;100780.00;5013217;28;66858;-38
2022/10/03 00:32:42;;;;;;;28.90;11.43;;;;;;;29.48;72.72;100806.56;5011791;28;70146;-39
2022/10/03 00:35:30;;;;;;;25.07;10.13;;;;;;;29.57;70.90;100794.47;5004589;28;66028;-41
2022/10/03 00:38:30;;;;;;;26.50;9.32;;;;;;;29.59;70.47;100805.91;5015087;28;70376;-40
2022/10/03 00:41:44;;;;;;;18.95;9.02;;;;;;;29.52;70.69;100815.88;5016374;28;66385;-40
2022/10/03 00:44:37;;;;;;;16.25;7.95;;;;;;;29.75;70.07;100813.53;4993854;28;70929;-40
2022/10/03 00:47:13;;;;;;;13.85;7.90;;;;;;;29.76;69.59;100820.63;4996777;28;66886;-40
2022/10/03 00:50:00;;;;;;;15.88;7.95;;;;;;;29.80;69.34;100821.00;5014825;28;70614;-39
2022/10/03 00:52:54;;;;;;;12.45;7.47;;;;;;;29.34;69.17;100752.53;5015544;28;66597;-39
2022/10/03 00:55:41;;;;;;;16.58;7.78;;;;;;;29.81;69.70;100826.22;5012667;28;70837;-40
2022/10/03 00:58:19;;;;;;;12.45;7.20;;;;;;;29.88;69.49;100822.66;5011428;28;67086;-41
2022/10/03 01:00:57;;;;;;;11.88;7.15;;;;;;;29.89;69.77;100827.00;5016075;28;69890;-41
2022/10/03 01:03:49;;;;;;;9.57;6.47;;;;;;;29.88;69.18;100838.88;5000934;28;66323;-42
2022/10/03 01:07:01;;;;;;;13.70;7.15;;;;;;;29.74;69.57;100817.28;4999934;28;71253;-40
2022/10/03 01:09:59;;;;;;;14.18;6.85;;;;;;;29.82;69.65;100854.91;4982869;28;66750;-40
2022/10/03 01:13:09;;;;;;;7.88;6.47;;;;;;;29.83;69.67;100848.44;5018477;28;69669;-40
2022/10/03 01:15:47;;;;;;;15.75;6.75;;;;;;;29.97;69.64;100860.03;5019631;28;66764;-40
2022/10/03 01:18:31;;;;;;;7.20;6.35;;;;;;;29.76;69.57;100823.31;5018853;28;70832;-40
2022/10/03 01:21:09;;;;;;;12.95;7.13;;;;;;;30.01;69.73;100857.75;5019038;28;67064;-41
2022/10/03 01:23:58;;;;;;;10.40;7.60;;;;;;;29.49;69.29;100787.41;5015939;28;71028;-39
2022/10/03 01:27:02;;;;;;;15.63;7.93;;;;;;;29.96;69.20;100877.31;5020417;28;66227;-40
2022/10/03 01:33:23;;;;;;;14.90;8.13;;;;;;;29.06;69.58;100717.72;5016552;28;67001;-40
2022/10/03 01:36:14;;;;;;;8.98;8.18;;;;;;;30.00;69.80;100875.00;5019595;28;70173;-40
2022/10/03 01:38:59;;;;;;;9.20;8.25;;;;;;;29.91;69.13;100843.84;5017640;28;66314;-40
2022/10/03 01:41:37;;;;;;;10.45;8.30;;;;;;;30.15;69.14;100872.03;5014301;28;70197;-40
2022/10/03 01:44:48;;;;;;;10.48;8.80;;;;;;;30.03;69.84;100880.84;5015556;28;65720;-40
2022/10/03 01:47:35;;;;;;;10.10;8.20;;;;;;;30.18;69.90;100883.25;4995125;28;68575;-40
2022/10/03 01:50:19;;;;;;;11.52;8.73;;;;;;;30.17;69.37;100887.03;5020331;28;67177;-40
2022/10/03 01:52:57;;;;;;;10.13;9.23;;;;;;;30.24;69.27;100898.66;5019425;28;70033;-40
2022/10/03 01:55:42;;;;;;;9.10;8.35;;;;;;;30.11;69.58;100874.34;5013738;28;66508;-40
2022/10/03 01:58:46;;;;;;;9.70;8.68;;;;;;;30.14;69.83;100898.25;5012865;28;70432;-40
2022/10/03 02:01:35;;;;;;;8.70;7.80;;;;;;;30.28;69.89;100899.91;5010223;28;66230;-40
2022/10/03 02:04:26;;;;;;;8.88;8.20;;;;;;;30.21;70.39;100896.34;5014205;28;70310;-40
2022/10/03 02:07:20;;;;;;;9.10;8.23;;;;;;;30.30;70.26;100896.13;5014302;28;66191;-40
2022/10/03 02:10:23;;;;;;;8.82;7.88;;;;;;;30.25;70.58;100894.88;5015679;28;70034;-40
2022/10/03 02:13:08;;;;;;;9.02;7.53;;;;;;;29.44;70.17;100745.84;5015901;28;66250;-40
2022/10/03 02:16:01;;;;;;;8.70;7.78;;;;;;;29.83;70.18;100809.75;5017087;28;70431;-40
2022/10/03 02:19:20;;;;;;;10.15;7.30;;;;;;;30.28;70.59;100889.06;5011468;28;66813;-39
2022/10/03 02:21:55;;;;;;;8.15;7.43;;;;;;;30.46;70.09;100890.22;5016351;28;70332;-40
2022/10/03 02:24:41;;;;;;;8.38;7.50;;;;;;;30.50;70.49;100886.03;5017905;28;66467;-39
2022/10/03 02:27:25;;;;;;;9.43;7.25;;;;;;;30.50;70.36;100880.59;5017152;28;70906;-40
2022/10/03 02:30:09;;;;;;;7.93;7.22;;;;;;;29.85;70.72;100780.63;5017938;28;66339;-40
2022/10/03 02:33:09;;;;;;;7.43;6.82;;;;;;;30.48;70.67;100882.72;5010097;28;70374;-40
2022/10/03 02:35:56;;;;;;;7.43;6.72;;;;;;;30.56;70.41;100879.72;5018923;28;66271;-40
2022/10/03 02:38:38;;;;;;;6.90;6.40;;;;;;;30.55;70.61;100872.66;5019553;28;70250;-40
2022/10/03 02:41:17;;;;;;;7.80;6.75;;;;;;;30.36;70.53;100828.44;5018538;28;65495;-40
2022/10/03 02:44:24;;;;;;;8.07;6.75;;;;;;;30.54;70.89;100864.78;5016713;28;68664;-40
2022/10/03 02:47:13;;;;;;;6.80;6.30;;;;;;;30.66;70.26;100868.44;5019304;28;66272;-40
2022/10/03 02:50:03;;;;;;;6.03;5.63;;;;;;;30.69;69.95;100860.69;5014857;28;70404;-40
2022/10/03 02:53:01;;;;;;;7.07;6.55;;;;;;;30.61;70.70;100857.41;5004408;28;65849;-41
2022/10/03 02:55:44;;;;;;;6.32;5.72;;;;;;;30.72;70.53;100856.72;5017180;28;70190;-40
2022/10/03 02:58:34;;;;;;;6.13;5.63;;;;;;;30.40;70.62;100794.50;5023294;28;66520;-40
2022/10/03 03:01:49;;;;;;;6.63;6.18;;;;;;;30.08;70.95;100753.03;5018208;28;70232;-40
2022/10/03 03:04:50;;;;;;;7.55;6.53;;;;;;;30.69;70.85;100830.91;5001768;28;66272;-40
2022/10/03 03:07:50;;;;;;;5.97;5.57;;;;;;;30.68;70.53;100810.31;5015817;28;70044;-40
2022/10/03 03:10:43;;;;;;;8.23;6.05;;;;;;;30.79;70.56;100829.59;5018917;28;65972;-40
2022/10/03 03:13:34;;;;;;;6.22;5.80;;;;;;;30.85;70.64;100831.44;5017281;28;69890;-40
2022/10/03 03:16:08;;;;;;;6.85;6.18;;;;;;;30.88;70.39;100829.13;5020464;28;66681;-40
2022/10/03 03:19:28;;;;;;;5.82;5.43;;;;;;;30.82;70.67;100819.19;5015090;28;70318;-40
2022/10/03 03:22:26;;;;;;;7.00;6.35;;;;;;;30.43;69.96;100739.09;4999952;28;66771;-40
2022/10/03 03:25:08;;;;;;;8.10;5.75;;;;;;;31.00;69.81;100822.97;5021248;28;67985;-40
2022/10/03 03:27:59;;;;;;;6.32;5.72;;;;;;;30.92;70.64;100818.66;5019811;28;65266;-41
2022/10/03 03:30:59;;;;;;;8.13;5.47;;;;;;;30.54;70.58;100751.91;5020401;28;69926;-40
2022/10/03 03:33:44;;;;;;;6.05;5.45;;;;;;;31.02;70.30;100813.59;5024023;28;65950;-40
2022/10/03 03:36:46;;;;;;;6.88;5.45;;;;;;;31.03;70.01;100800.84;5002340;28;70026;-40
2022/10/03 03:39:17;;;;;;;8.00;5.53;;;;;;;31.09;69.92;100799.97;5020803;28;66540;-40
2022/10/03 03:41:56;;;;;;;6.35;5.57;;;;;;;31.08;70.06;100807.25;5019738;28;69796;-40
2022/10/03 03:44:54;;;;;;;5.20;4.80;;;;;;;31.03;70.37;100804.38;5021160;28;65339;-40
2022/10/03 03:47:52;;;;;;;5.57;5.28;;;;;;;31.04;70.00;100797.94;5016712;28;70225;-40
2022/10/03 03:50:30;;;;;;;5.13;4.70;;;;;;;31.12;69.85;100800.34;5016670;28;65922;-40
2022/10/03 03:53:20;;;;;;;5.65;5.15;;;;;;;31.07;69.95;100797.50;5017998;28;69727;-40
2022/10/03 03:55:51;;;;;;;7.53;4.93;;;;;;;31.17;69.11;100808.66;5018024;28;65359;-40
2022/10/03 03:58:44;;;;;;;5.82;5.32;;;;;;;31.19;69.57;100808.41;5012753;28;69361;-40
2022/10/03 04:01:35;;;;;;;6.05;5.40;;;;;;;31.20;69.38;100792.97;5015331;28;65394;-44
2022/10/03 04:04:06;;;;;;;;;;;;;;;30.88;71.00;100803.94;4999179;28;70720;-41
2022/10/03 04:06:46;;;;;;;6.20;4.88;;;;;;;31.19;69.94;100796.75;5016390;28;65807;-41
2022/10/03 04:09:26;;;;;;;5.07;4.72;;;;;;;31.26;69.30;100786.66;5019951;28;70309;-41
2022/10/03 04:12:25;;;;;;;5.10;4.60;;;;;;;31.29;68.93;100783.50;5019443;28;66185;-40
2022/10/03 04:15:32;;;;;;;5.78;4.43;;;;;;;30.70;69.69;100702.63;5008868;28;70633;-41
2022/10/03 04:21:39;;;;;;;4.82;4.43;;;;;;;31.33;68.95;100766.56;5015782;28;70102;-40
2022/10/03 04:24:42;;;;;;;5.07;4.78;;;;;;;30.46;69.37;100624.97;5006947;28;66683;-41
2022/10/03 04:27:22;;;;;;;4.72;4.43;;;;;;;31.44;69.07;100762.28;5016898;28;69577;-41
2022/10/03 04:30:14;;;;;;;4.88;4.47;;;;;;;31.40;69.27;100744.84;5008165;28;65737;-41
2022/10/03 04:33:05;;;;;;;;;;;;;;;31.14;70.13;100746.75;5006121;28;70037;-41
2022/10/03 04:36:00;;;;;;;7.05;5.10;;;;;;;31.39;69.52;100744.00;5012777;28;65795;-41
2022/10/03 04:38:43;;;;;;;5.30;4.80;;;;;;;31.42;69.14;100726.44;5013556;28;69746;-41
2022/10/03 04:41:28;;;;;;;6.70;4.50;;;;;;;31.58;68.49;100731.25;5015799;28;66543;-40
2022/10/03 04:44:04;;;;;;;5.70;5.30;;;;;;;31.61;68.48;100719.94;5010570;28;69836;-40
2022/10/03 04:46:51;;;;;;;8.13;4.90;;;;;;;31.56;68.67;100717.09;5016239;28;66119;-41
2022/10/03 04:49:34;;;;;;;4.85;4.45;;;;;;;31.23;68.74;100643.47;5012151;28;70934;-41
2022/10/03 04:52:08;;;;;;;5.18;4.78;;;;;;;31.68;68.05;100709.03;5013107;28;66131;-40
2022/10/03 04:55:17;;;;;;;5.53;5.13;;;;;;;31.64;68.71;100709.69;5015344;28;70135;-40
2022/10/03 04:58:19;;;;;;;5.28;4.88;;;;;;;31.61;68.60;100702.84;5020580;28;66241;-41
2022/10/03 05:01:05;;;;;;;5.97;5.57;;;;;;;31.25;68.37;100634.06;5019642;28;69913;-40
2022/10/03 05:03:57;;;;;;;5.97;5.43;;;;;;;31.77;68.53;100704.09;5022500;28;65726;-40
2022/10/03 05:06:55;;;;;;;5.03;4.70;;;;;;;30.89;68.35;100553.69;5019769;28;70063;-40
2022/10/03 05:09:37;;;;;;;5.43;4.95;;;;;;;31.32;68.30;100617.75;5020184;28;65770;-40
2022/10/03 05:12:17;;;;;;;5.20;4.90;;;;;;;31.40;67.96;100620.16;5016266;28;69824;-41
2022/10/03 05:15:35;;;;;;;10.70;5.25;;;;;;;31.73;68.53;100683.91;5020731;28;65350;-41
2022/10/03 05:18:24;;;;;;;4.82;4.45;;;;;;;31.87;68.17;100679.13;5006573;28;69852;-42
2022/10/03 05:21:33;;;;;;;5.03;4.72;;;;;;;31.86;67.89;100666.63;5018609;28;66340;-41
2022/10/03 05:24:21;;;;;;;5.40;5.00;;;;;;;31.43;67.32;100576.31;4992113;28;70049;-40
2022/10/03 05:27:02;;;;;;;5.32;4.60;;;;;;;31.99;67.29;100651.00;5016899;28;66475;-41
2022/10/03 05:30:01;;;;;;;5.15;4.70;;;;;;;31.99;67.22;100645.56;5007920;28;69881;-41
2022/10/03 05:33:19;;;;;;;4.80;4.38;;;;;;;31.58;67.79;100578.59;5019804;28;66458;-41
2022/10/03 05:36:20;;;;;;;4.53;4.15;;;;;;;31.98;66.95;100627.66;5020381;28;70177;-41
2022/10/03 05:39:20;;;;;;;5.30;3.95;;;;;;;31.54;67.06;100539.47;5018661;28;66205;-41
2022/10/03 05:42:33;;;;;;;4.57;4.13;;;;;;;31.89;66.56;100606.47;5017112;28;70735;-41
2022/10/03 05:45:22;;;;;;;3.88;3.67;;;;;;;32.13;66.47;100615.50;5016508;28;65866;-41
2022/10/03 05:48:29;;;;;;;9.63;3.70;;;;;;;32.07;66.46;100598.28;5017368;28;43109;-40
2022/10/03 05:51:12;;;;;;;3.90;3.60;;;;;;;32.19;66.10;100595.56;5012911;28;65846;-41
2022/10/03 05:54:14;;;;;;;4.15;3.85;;;;;;;31.69;66.13;100530.88;5008172;28;70026;-40
2022/10/03 05:57:26;;;;;;;5.07;3.83;;;;;;;31.73;65.83;100515.78;4999964;28;66548;-40
2022/10/03 06:00:07;;;;;;;3.60;3.30;;;;;;;32.25;66.02;100589.19;4984695;28;69404;-40
2022/10/03 06:02:54;;;;;;;5.30;3.33;;;;;;;31.69;65.69;100501.03;5012933;28;65291;-40
2022/10/03 06:06:02;;;;;;;4.45;3.20;;;;;;;32.21;65.65;100588.03;5018868;28;69964;-40
2022/10/03 06:08:55;;;;;;;5.47;3.63;;;;;;;32.25;65.45;100583.75;5015200;28;65400;-39
2022/10/03 06:11:44;;;;;;;3.35;3.15;;;;;;;32.33;65.64;100569.81;5015998;28;70468;-41
2022/10/03 06:14:38;;;;;;;3.58;3.25;;;;;;;32.18;65.47;100534.19;4996369;28;65967;-41
2022/10/03 06:17:34;;;;;;;3.80;3.50;;;;;;;32.28;65.48;100546.09;5018355;28;70442;-41
2022/10/03 06:20:29;;;;;;;3.33;3.03;;;;;;;32.37;65.58;100560.13;5019190;28;66893;-41
2022/10/03 06:23:24;;;;;;;3.47;2.83;;;;;;;32.34;65.03;100571.47;5014504;28;70349;-41
2022/10/03 06:26:20;;;;;;;6.45;3.20;;;;;;;32.32;65.23;100565.47;5019000;28;65780;-41
2022/10/03 06:29:28;;;;;;;3.60;3.30;;;;;;;32.32;65.09;100565.47;5018516;28;70092;-41
2022/10/03 06:32:24;;;;;;;3.13;2.92;;;;;;;31.98;64.95;100478.44;5019228;28;66309;-40
2022/10/03 06:35:32;;;;;;;3.17;2.85;;;;;;;32.28;65.38;100534.44;5015460;28;71500;-41
2022/10/03 06:38:37;;;;;;;9.07;3.10;;;;;;;32.41;65.15;100526.03;5012144;28;65369;-41
2022/10/03 06:41:50;;;;;;;9.95;3.63;;;;;;;32.32;65.39;100513.06;4993260;28;70058;-41
2022/10/03 06:44:43;;;;;;;9.93;3.53;;;;;;;32.24;64.98;100484.41;5010871;28;65759;-41
2022/10/03 06:47:25;;;;;;;16.27;3.53;;;;;;;32.44;65.18;100517.41;5014285;28;70209;-41
2022/10/03 06:50:21;;;;;;;15.45;4.00;;;;;;;32.44;64.95;100530.97;5014353;28;66562;-40
2022/10/03 06:52:57;;;;;;;10.50;3.65;;;;;;;32.44;65.09;100516.59;5019224;28;69852;-40
2022/10/03 06:55:49;;;;;;;9.23;3.60;;;;;;;32.50;65.11;100515.66;5018817;28;65981;-40
2022/10/03 06:58:58;;;;;;;8.48;3.80;;;;;;;32.43;64.84;100498.63;5018144;28;70448;-41
2022/10/03 07:02:05;;;;;;;11.23;3.60;;;;;;;32.38;65.01;100491.22;5006847;28;66172;-41
2022/10/03 07:05:06;;;;;;;9.52;3.80;;;;;;;32.41;65.15;100481.78;5015059;28;70559;-40
2022/10/03 07:07:53;;;;;;;6.68;3.63;;;;;;;32.39;64.98;100478.47;5019280;28;66251;-40
2022/10/03 07:10:37;;;;;;;15.30;3.80;;;;;;;32.47;65.01;100488.97;5016167;28;70086;-41
2022/10/03 07:13:27;;;;;;;10.70;3.85;;;;;;;32.46;64.83;100493.59;5014787;28;66069;-41
2022/10/03 07:16:22;;;;;;;9.35;3.50;;;;;;;32.38;64.81;100493.13;5017528;28;69643;-40
2022/10/03 07:19:42;;;;;;;17.13;4.20;;;;;;;32.32;65.16;100494.91;5024787;28;66484;-41
2022/10/03 07:22:48;;;;;;;9.23;4.20;;;;;;;31.87;65.18;100422.25;5013093;28;70476;-40
2022/10/03 07:25:37;;;;;;;8.45;3.60;;;;;;;32.04;64.77;100419.69;5021413;28;65197;-40
2022/10/03 07:28:31;;;;;;;10.40;3.55;;;;;;;32.37;64.73;100467.03;5018658;28;69870;-41
2022/10/03 07:31:08;;;;;;;8.95;3.33;;;;;;;32.42;64.61;100472.56;5019999;28;65950;-41
2022/10/03 07:33:58;;;;;;;9.05;3.83;;;;;;;32.36;64.89;100477.06;5017454;28;69988;-40
2022/10/03 07:40:05;;;;;;;14.45;4.00;;;;;;;31.84;64.63;100398.31;5020705;28;70395;-40
2022/10/03 07:42:51;;;;;;;10.52;3.53;;;;;;;32.36;64.82;100466.19;5013391;28;66180;-40
2022/10/03 07:45:33;;;;;;;5.93;3.28;;;;;;;32.39;64.59;100468.44;5020523;28;70352;-42
2022/10/03 07:48:23;;;;;;;11.60;3.95;;;;;;;32.42;64.82;100469.84;5020741;28;65863;-41
2022/10/03 07:51:35;;;;;;;6.45;3.38;;;;;;;32.40;64.61;100472.81;5019370;28;70964;-40
2022/10/03 07:54:41;;;;;;;5.18;2.83;;;;;;;32.34;64.62;100468.31;4959255;28;66665;-40
2022/10/03 07:57:36;;;;;;;15.18;3.63;;;;;;;32.24;64.57;100452.66;5017674;28;67891;-40
2022/10/03 08:00:16;;;;;;;6.85;3.33;;;;;;;32.40;64.33;100472.81;5015705;28;65776;-41
2022/10/03 08:03:23;;;;;;;9.43;3.30;;;;;;;32.29;64.51;100465.53;5002553;28;69843;-40
2022/10/03 08:06:12;;;;;;;9.43;2.97;;;;;;;32.37;64.49;100456.97;5019321;28;66417;-40
2022/10/03 08:08:54;;;;;;;8.98;3.55;;;;;;;32.34;64.65;100462.88;5018842;28;69998;-40
2022/10/03 08:11:56;;;;;;;19.63;4.55;;;;;;;32.29;64.15;100465.53;4997839;28;66556;-40
2022/10/03 08:14:38;;;;;;;13.05;3.60;;;;;;;32.34;64.51;100467.50;5015221;28;70517;-40
2022/10/03 08:17:57;;;;;;;11.98;3.50;;;;;;;31.35;64.69;100313.75;5014714;28;66084;-40
2022/10/03 08:21:09;;;;;;;14.13;4.18;;;;;;;32.24;64.38;100468.94;5008133;28;70206;-41
2022/10/03 08:24:17;;;;;;;16.57;3.77;;;;;;;32.23;64.25;100455.59;5016441;28;66458;-39
2022/10/03 08:27:13;;;;;;;13.52;3.97;;;;;;;31.88;64.20;100385.94;5019262;28;69435;-40
2022/10/03 08:30:18;;;;;;;14.32;4.13;;;;;;;32.21;64.58;100455.03;5011879;28;65958;-41
2022/10/03 08:33:00;;;;;;;18.75;3.97;;;;;;;32.28;64.21;100453.00;5010282;28;69329;-41
2022/10/03 08:36:04;;;;;;;17.45;4.00;;;;;;;32.28;64.36;100442.97;5019412;28;65618;-40
2022/10/03 08:38:59;;;;;;;12.93;3.65;;;;;;;32.19;64.39;100436.28;5001412;28;70271;-41
2022/10/03 08:41:38;;;;;;;24.23;4.30;;;;;;;32.29;64.38;100438.38;5013049;28;66069;-41
2022/10/03 08:44:28;;;;;;;22.33;4.50;;;;;;;32.28;64.31;100436.72;5010124;28;71040;-41
2022/10/03 08:47:01;;;;;;;23.55;4.25;;;;;;;32.27;64.28;100440.50;5008542;28;65582;-41
2022/10/03 08:50:08;;;;;;;16.55;3.85;;;;;;;32.19;64.39;100443.59;5019774;28;70279;-40
2022/10/03 08:53:01;;;;;;;14.13;3.90;;;;;;;32.26;64.08;100450.53;5016258;28;65816;-41
2022/10/03 08:56:10;;;;;;;27.55;4.30;;;;;;;32.15;64.37;100442.41;5017879;28;69741;-40
2022/10/03 08:59:29;;;;;;;20.33;4.72;;;;;;;32.10;64.53;100440.44;5020631;28;66059;-41
2022/10/03 09:02:13;;;;;;;20.45;4.97;;;;;;;32.21;64.50;100431.44;5006968;28;70527;-41
2022/10/03 09:05:12;;;;;;;26.92;4.63;;;;;;;31.78;64.46;100388.44;5020104;28;66668;-41
2022/10/03 09:08:13;;;;;;;22.80;4.35;;;;;;;32.15;64.13;100448.69;5002251;28;69502;-40
2022/10/03 09:11:17;;;;;;;15.30;3.87;;;;;;;32.18;64.26;100448.19;5019903;28;65396;-41
2022/10/03 09:14:11;;;;;;;18.42;4.63;;;;;;;32.08;64.70;100471.56;5019514;28;70145;-41
2022/10/03 09:16:48;;;;;;;32.13;4.70;;;;;;;32.17;64.20;100470.97;5001661;28;65573;-40
2022/10/03 09:19:28;;;;;;;20.17;4.80;;;;;;;32.18;64.16;100471.78;5019596;28;70214;-41
2022/10/03 09:22:28;;;;;;;21.13;4.57;;;;;;;32.08;64.76;100485.16;5022761;28;65504;-40
2022/10/03 09:25:13;;;;;;;28.98;4.75;;;;;;;31.64;64.50;100408.72;4992704;28;69342;-41
2022/10/03 09:28:20;;;;;;;22.42;4.57;;;;;;;32.07;64.57;100491.63;5019532;28;66125;-40
2022/10/03 09:31:03;;;;;;;27.23;5.03;;;;;;;32.15;64.33;100497.53;5019129;28;68650;-41
2022/10/03 09:33:58;;;;;;;35.10;5.65;;;;;;;32.15;64.20;100496.69;5018381;28;65847;-41
2022/10/03 09:36:51;;;;;;;22.73;5.25;;;;;;;32.05;64.39;100492.69;5019864;28;70376;-40
2022/10/03 09:39:23;;;;;;;28.90;5.32;;;;;;;32.12;64.46;100508.81;5015033;28;65189;-41
2022/10/03 09:42:21;;;;;;;;;;;;;;;31.79;65.33;100509.44;5018416;28;69739;-40
2022/10/03 09:44:54;;;;;;;29.70;5.47;;;;;;;32.10;64.86;100515.59;5018329;28;66534;-41
2022/10/03 09:47:43;;;;;;;36.25;5.47;;;;;;;32.10;64.50;100516.41;5015439;28;70218;-41
2022/10/03 09:50:54;;;;;;;24.10;5.28;;;;;;;31.73;64.76;100483.22;5009401;28;66803;-41
2022/10/03 09:53:43;;;;;;;19.17;4.60;;;;;;;32.02;64.71;100524.91;5013092;28;69920;-41
2022/10/03 09:56:32;;;;;;;25.63;5.22;;;;;;;32.07;64.52;100514.16;5009912;28;66064;-41
2022/10/03 09:59:33;;;;;;;18.67;4.82;;;;;;;32.07;64.69;100516.03;5006548;28;70403;-40
2022/10/03 10:02:22;;;;;;;18.67;4.85;;;;;;;32.05;64.70;100511.69;4979772;28;65779;-41
2022/10/03 10:05:14;;;;;;;14.85;5.07;;;;;;;32.06;64.71;100520.63;5011040;28;70140;-41
2022/10/03 10:08:17;;;;;;;18.88;4.90;;;;;;;31.47;65.11;100447.38;5009574;28;65757;-41
2022/10/03 10:11:04;;;;;;;21.27;4.50;;;;;;;31.94;65.12;100530.69;5015717;28;70302;-40
2022/10/03 10:14:18;;;;;;;25.77;4.78;;;;;;;31.88;65.22;100537.84;5018620;28;67530;-42
2022/10/03 10:17:26;;;;;;;16.65;4.57;;;;;;;31.90;65.01;100548.44;5012426;28;69730;-40
2022/10/03 10:20:06;;;;;;;20.38;5.25;;;;;;;31.94;65.32;100560.53;5017978;28;66089;-40
2022/10/03 10:23:08;;;;;;;18.67;4.80;;;;;;;31.92;65.10;100552.59;5020951;28;70761;-40
2022/10/03 10:25:59;;;;;;;32.97;5.95;;;;;;;31.97;65.00;100555.44;5017485;28;66135;-40
2022/10/03 10:29:06;;;;;;;25.23;5.75;;;;;;;31.90;65.15;100554.72;5019021;28;70562;-40
2022/10/03 10:32:14;;;;;;;19.67;6.30;;;;;;;31.75;65.88;100557.03;5016143;28;65519;-41
2022/10/03 10:35:27;;;;;;;22.27;7.25;;;;;;;31.45;68.30;100576.91;5011836;28;69931;-40
2022/10/03 10:38:43;;;;;;;22.60;6.88;;;;;;;31.36;69.31;100578.28;5016535;28;66527;-41
2022/10/03 10:41:23;;;;;;;37.60;7.10;;;;;;;31.36;69.98;100575.59;5008047;28;69432;-41
2022/10/03 10:44:30;;;;;;;37.65;7.63;;;;;;;31.27;70.37;100587.78;5014089;28;66523;-41
2022/10/03 10:47:26;;;;;;;39.35;6.93;;;;;;;31.24;70.76;100588.25;5012220;28;69562;-41
2022/10/03 10:50:18;;;;;;;16.92;6.75;;;;;;;31.28;70.65;100589.44;5014133;28;66464;-41
2022/10/03 10:53:26;;;;;;;25.58;6.90;;;;;;;31.13;71.96;100598.81;5014134;28;70708;-40
2022/10/03 10:56:21;;;;;;;23.63;7.03;;;;;;;31.14;72.88;100614.00;5016888;28;65854;-40
2022/10/03 10:59:12;;;;;;;29.98;7.22;;;;;;;31.25;72.61;100627.81;5016246;28;70139;-40
2022/10/03 11:01:56;;;;;;;22.77;7.28;;;;;;;31.22;72.93;100625.59;5003843;28;66872;-40
2022/10/03 11:04:54;;;;;;;20.33;6.53;;;;;;;31.33;71.12;100624.81;5018048;28;71502;-40
2022/10/03 11:07:37;;;;;;;28.15;6.78;;;;;;;31.48;70.22;100630.69;5022118;28;66305;-41
2022/10/03 11:10:38;;;;;;;24.65;6.25;;;;;;;31.50;69.98;100636.69;5021341;28;70223;-40
2022/10/03 11:13:12;;;;;;;13.93;6.07;;;;;;;31.63;69.04;100629.44;5013305;28;65580;-40
2022/10/03 11:16:24;;;;;;;13.95;5.78;;;;;;;31.55;70.06;100639.53;5016101;28;70395;-40
2022/10/03 11:19:32;;;;;;;10.90;5.30;;;;;;;31.55;69.78;100644.94;5017178;28;65568;-40
2022/10/03 11:22:11;;;;;;;10.10;5.22;;;;;;;31.70;69.17;100662.69;5017481;28;70133;-41
2022/10/03 11:25:19;;;;;;;13.70;5.45;;;;;;;31.63;69.35;100661.97;5015587;28;65183;-40
2022/10/03 11:28:21;;;;;;;12.00;5.63;;;;;;;31.69;69.16;100672.69;5009500;28;70077;-40
2022/10/03 11:31:43;;;;;;;14.55;6.13;;;;;;;31.09;69.70;100600.31;5020198;28;66301;-41
2022/10/03 11:34:51;;;;;;;8.63;6.25;;;;;;;31.66;69.29;100678.59;5015822;28;69243;-40
2022/10/03 11:37:40;;;;;;;6.40;5.88;;;;;;;31.76;68.81;100684.28;5017981;28;66233;-40
2022/10/03 11:40:27;;;;;;;12.57;6.25;;;;;;;31.78;68.70;100687.56;5017222;28;70014;-41
2022/10/03 11:43:30;;;;;;;8.38;5.60;;;;;;;31.65;69.18;100695.06;5014032;28;66592;-40
2022/10/03 11:46:51;;;;;;;12.32;5.55;;;;;;;31.71;69.04;100700.41;5005876;28;69858;-41
2022/10/03 11:49:40;;;;;;;7.65;5.20;;;;;;;31.75;68.69;100707.03;4956221;28;66788;-41
2022/10/03 11:52:31;;;;;;;8.38;5.57;;;;;;;31.79;68.62;100715.56;4961231;28;69100;-40
2022/10/03 11:55:19;;;;;;;9.50;5.72;;;;;;;31.77;68.74;100731.22;5010169;28;65416;-41
2022/10/03 11:58:24;;;;;;;6.82;4.90;;;;;;;31.15;68.82;100636.50;5017948;28;70424;-40
2022/10/03 12:01:13;;;;;;;10.40;5.20;;;;;;;31.76;68.85;100737.69;5017627;28;65757;-41
2022/10/03 12:04:36;;;;;;;10.10;5.68;;;;;;;31.61;68.96;100747.06;5017775;28;69670;-40
2022/10/03 12:10:32;;;;;;;10.32;5.93;;;;;;;31.40;72.36;100761.09;5019050;28;70171;-39
2022/10/03 12:13:17;;;;;;;8.68;6.20;;;;;;;31.32;73.41;100769.50;5016950;28;66662;-41
2022/10/03 12:15:54;;;;;;;7.50;6.10;;;;;;;31.06;73.80;100752.47;5008936;28;69174;-41
2022/10/03 12:18:47;;;;;;;8.60;5.40;;;;;;;31.02;74.69;100786.50;5013534;28;66460;-41
2022/10/03 12:21:27;;;;;;;16.48;6.45;;;;;;;31.22;74.08;100797.13;5013406;28;69478;-39
2022/10/03 12:24:32;;;;;;;14.85;5.78;;;;;;;31.26;73.04;100792.06;5017739;28;66397;-40
2022/10/03 12:27:33;;;;;;;12.60;5.57;;;;;;;31.32;72.41;100792.00;5002560;28;69432;-40
2022/10/03 12:30:15;;;;;;;7.68;5.20;;;;;;;31.41;72.07;100794.47;5016193;28;65979;-40
2022/10/03 12:32:48;;;;;;;7.00;5.47;;;;;;;31.46;71.50;100803.56;5016994;28;69620;-40
2022/10/03 12:35:49;;;;;;;6.35;5.03;;;;;;;31.45;71.70;100801.91;5020212;28;65306;-40
2022/10/03 12:38:40;;;;;;;7.68;5.00;;;;;;;31.53;71.13;100809.72;5018165;28;69460;-39
2022/10/03 12:41:27;;;;;;;7.22;5.68;;;;;;;31.50;71.10;100810.19;5014453;28;66473;-40
2022/10/03 12:44:34;;;;;;;7.75;5.82;;;;;;;31.45;71.48;100810.03;5019789;28;69674;-40
2022/10/03 12:47:50;;;;;;;7.32;4.85;;;;;;;31.42;71.27;100824.03;5017840;28;66415;-40
2022/10/03 12:50:39;;;;;;;7.20;5.07;;;;;;;31.18;71.18;100763.41;5019598;28;70445;-40
2022/10/03 12:53:16;;;;;;;7.30;5.53;;;;;;;31.54;70.73;100827.66;5016588;28;66122;-40
2022/10/03 12:56:11;;;;;;;5.32;4.68;;;;;;;31.56;70.62;100830.97;5020493;28;70294;-40
2022/10/03 12:59:16;;;;;;;6.72;5.50;;;;;;;31.46;70.66;100827.97;5015641;28;66425;-40
2022/10/03 13:02:08;;;;;;;5.53;5.13;;;;;;;31.52;70.58;100829.75;5020781;28;70157;-39
2022/10/03 13:04:54;;;;;;;7.32;5.63;;;;;;;31.54;70.48;100838.50;5015273;28;66209;-40
2022/10/03 13:07:56;;;;;;;6.28;5.00;;;;;;;31.33;70.84;100847.03;5009508;28;69604;-41
2022/10/03 13:10:59;;;;;;;7.63;5.15;;;;;;;31.55;70.72;100856.44;5017035;28;66099;-40
2022/10/03 13:14:05;;;;;;;5.13;4.70;;;;;;;31.10;70.32;100788.91;4992922;28;69586;-39
2022/10/03 13:17:02;;;;;;;5.57;5.07;;;;;;;31.38;70.34;100830.97;5011316;28;65489;-40
2022/10/03 13:20:02;;;;;;;5.90;5.35;;;;;;;31.41;70.68;100854.91;5018987;28;69701;-39
2022/10/03 13:22:55;;;;;;;5.15;4.75;;;;;;;31.46;70.44;100863.22;5018628;28;65750;-40
2022/10/03 13:25:49;;;;;;;7.70;5.32;;;;;;;31.57;70.44;100867.88;5018799;28;70128;-40
2022/10/03 13:29:11;;;;;;;5.53;5.07;;;;;;;31.39;70.18;100873.28;5019462;28;65714;-40
2022/10/03 13:31:54;;;;;;;4.60;4.23;;;;;;;31.11;70.22;100817.66;5015761;28;69319;-40
2022/10/03 13:34:30;;;;;;;6.68;5.20;;;;;;;31.13;70.21;100812.84;5019168;28;66372;-39
2022/10/03 13:37:20;;;;;;;5.68;5.20;;;;;;;31.54;70.18;100887.31;5003229;28;69635;-40
2022/10/03 13:39:56;;;;;;;5.70;5.00;;;;;;;31.53;69.95;100893.78;5002401;28;68313;-40